<?xml version="1.0" encoding="UTF-8" standalone="no" ?>
<gpx xmlns="http://www.topografix.com/GPX/1/1" xmlns:xsi="http://www.w3.org/2001/XMLSchema-instance" xsi:schemaLocation="http://www.topografix.com/GPX/1/1 http://www.topografix.com/GPX/1/1/gpx.xsd" version="1.1" creator="VisuGPX - https://www.visugpx.com">
  <metadata>
    <name>Trek au Ladakh</name>
    <desc><![CDATA[Trek au Ladakh - Septembre 2015]]></desc>
  </metadata>
  <trk>
    <name><![CDATA[Hinju  (3800m) - Camp de Hinju (3920m)]]></name>
    <trkseg>
      <trkpt lat="34.18672" lon="76.93541">
        <ele>3794</ele>
        <time>2015-08-28T10:16:26Z</time>
      </trkpt>
      <trkpt lat="34.1867" lon="76.93541">
        <ele>3795</ele>
        <time>2015-08-28T10:18:05Z</time>
      </trkpt>
      <trkpt lat="34.1867" lon="76.93542">
        <ele>3795.2</ele>
        <time>2015-08-28T10:18:06Z</time>
      </trkpt>
      <trkpt lat="34.18669" lon="76.93552">
        <ele>3796.2</ele>
        <time>2015-08-28T10:18:24Z</time>
      </trkpt>
      <trkpt lat="34.18669" lon="76.93551">
        <ele>3796.6</ele>
        <time>2015-08-28T10:18:48Z</time>
      </trkpt>
      <trkpt lat="34.18671" lon="76.93549">
        <ele>3796.6</ele>
        <time>2015-08-28T10:18:50Z</time>
      </trkpt>
      <trkpt lat="34.18672" lon="76.93548">
        <ele>3796.4</ele>
        <time>2015-08-28T10:18:52Z</time>
      </trkpt>
      <trkpt lat="34.1867" lon="76.93543">
        <ele>3795.2</ele>
        <time>2015-08-28T10:19:04Z</time>
      </trkpt>
      <trkpt lat="34.18672" lon="76.9353">
        <ele>3795.2</ele>
        <time>2015-08-28T10:20:07Z</time>
      </trkpt>
      <trkpt lat="34.18672" lon="76.93533">
        <ele>3795.2</ele>
        <time>2015-08-28T10:20:10Z</time>
      </trkpt>
      <trkpt lat="34.18671" lon="76.93535">
        <ele>3795.2</ele>
        <time>2015-08-28T10:20:12Z</time>
      </trkpt>
      <trkpt lat="34.18671" lon="76.93538">
        <ele>3795.4</ele>
        <time>2015-08-28T10:20:14Z</time>
      </trkpt>
      <trkpt lat="34.1867" lon="76.93543">
        <ele>3795.4</ele>
        <time>2015-08-28T10:20:18Z</time>
      </trkpt>
      <trkpt lat="34.1867" lon="76.93546">
        <ele>3795.4</ele>
        <time>2015-08-28T10:20:22Z</time>
      </trkpt>
      <trkpt lat="34.1867" lon="76.93553">
        <ele>3796.2</ele>
        <time>2015-08-28T10:20:31Z</time>
      </trkpt>
      <trkpt lat="34.18671" lon="76.93564">
        <ele>3795.8</ele>
        <time>2015-08-28T10:20:41Z</time>
      </trkpt>
      <trkpt lat="34.18671" lon="76.93565">
        <ele>3795.6</ele>
        <time>2015-08-28T10:20:43Z</time>
      </trkpt>
      <trkpt lat="34.18669" lon="76.93579">
        <ele>3796.8</ele>
        <time>2015-08-28T10:22:02Z</time>
      </trkpt>
      <trkpt lat="34.18672" lon="76.93578">
        <ele>3797.2</ele>
        <time>2015-08-28T10:22:27Z</time>
      </trkpt>
      <trkpt lat="34.18673" lon="76.93575">
        <ele>3796.2</ele>
        <time>2015-08-28T10:23:01Z</time>
      </trkpt>
      <trkpt lat="34.18672" lon="76.93584">
        <ele>3797.2</ele>
        <time>2015-08-28T10:23:20Z</time>
      </trkpt>
      <trkpt lat="34.18665" lon="76.93603">
        <ele>3797.8</ele>
        <time>2015-08-28T10:23:48Z</time>
      </trkpt>
      <trkpt lat="34.18664" lon="76.93607">
        <ele>3798.2</ele>
        <time>2015-08-28T10:23:53Z</time>
      </trkpt>
      <trkpt lat="34.18663" lon="76.93611">
        <ele>3799.2</ele>
        <time>2015-08-28T10:23:57Z</time>
      </trkpt>
      <trkpt lat="34.18662" lon="76.93625">
        <ele>3799.6</ele>
        <time>2015-08-28T10:24:14Z</time>
      </trkpt>
      <trkpt lat="34.1866" lon="76.93633">
        <ele>3799.8</ele>
        <time>2015-08-28T10:24:21Z</time>
      </trkpt>
      <trkpt lat="34.18658" lon="76.93635">
        <ele>3799.8</ele>
        <time>2015-08-28T10:24:23Z</time>
      </trkpt>
      <trkpt lat="34.18658" lon="76.93638">
        <ele>3800.2</ele>
        <time>2015-08-28T10:24:25Z</time>
      </trkpt>
      <trkpt lat="34.18657" lon="76.93639">
        <ele>3800.4</ele>
        <time>2015-08-28T10:24:26Z</time>
      </trkpt>
      <trkpt lat="34.18656" lon="76.9364">
        <ele>3800.6</ele>
        <time>2015-08-28T10:24:27Z</time>
      </trkpt>
      <trkpt lat="34.18654" lon="76.93654">
        <ele>3801.4</ele>
        <time>2015-08-28T10:24:44Z</time>
      </trkpt>
      <trkpt lat="34.18652" lon="76.93656">
        <ele>3801.6</ele>
        <time>2015-08-28T10:24:47Z</time>
      </trkpt>
      <trkpt lat="34.18653" lon="76.93667">
        <ele>3801.8</ele>
        <time>2015-08-28T10:24:58Z</time>
      </trkpt>
      <trkpt lat="34.1865" lon="76.93676">
        <ele>3802.2</ele>
        <time>2015-08-28T10:25:09Z</time>
      </trkpt>
      <trkpt lat="34.18649" lon="76.93678">
        <ele>3802.2</ele>
        <time>2015-08-28T10:25:11Z</time>
      </trkpt>
      <trkpt lat="34.18648" lon="76.93683">
        <ele>3802.2</ele>
        <time>2015-08-28T10:25:16Z</time>
      </trkpt>
      <trkpt lat="34.18649" lon="76.93688">
        <ele>3802.4</ele>
        <time>2015-08-28T10:25:20Z</time>
      </trkpt>
      <trkpt lat="34.18646" lon="76.93694">
        <ele>3802.8</ele>
        <time>2015-08-28T10:25:27Z</time>
      </trkpt>
      <trkpt lat="34.18639" lon="76.9371">
        <ele>3803.4</ele>
        <time>2015-08-28T10:26:11Z</time>
      </trkpt>
      <trkpt lat="34.18639" lon="76.93711">
        <ele>3803.6</ele>
        <time>2015-08-28T10:26:13Z</time>
      </trkpt>
      <trkpt lat="34.18646" lon="76.93722">
        <ele>3804.6</ele>
        <time>2015-08-28T10:26:31Z</time>
      </trkpt>
      <trkpt lat="34.18648" lon="76.93727">
        <ele>3805.6</ele>
        <time>2015-08-28T10:26:39Z</time>
      </trkpt>
      <trkpt lat="34.18644" lon="76.93733">
        <ele>3806.8</ele>
        <time>2015-08-28T10:26:50Z</time>
      </trkpt>
      <trkpt lat="34.18643" lon="76.93738">
        <ele>3807.8</ele>
        <time>2015-08-28T10:26:58Z</time>
      </trkpt>
      <trkpt lat="34.18636" lon="76.93751">
        <ele>3808.6</ele>
        <time>2015-08-28T10:27:16Z</time>
      </trkpt>
      <trkpt lat="34.18634" lon="76.93755">
        <ele>3808.6</ele>
        <time>2015-08-28T10:27:20Z</time>
      </trkpt>
      <trkpt lat="34.18634" lon="76.93758">
        <ele>3808.6</ele>
        <time>2015-08-28T10:27:24Z</time>
      </trkpt>
      <trkpt lat="34.18633" lon="76.93764">
        <ele>3808.8</ele>
        <time>2015-08-28T10:27:31Z</time>
      </trkpt>
      <trkpt lat="34.1863" lon="76.9377">
        <ele>3810</ele>
        <time>2015-08-28T10:27:40Z</time>
      </trkpt>
      <trkpt lat="34.18627" lon="76.9378">
        <ele>3810.4</ele>
        <time>2015-08-28T10:27:58Z</time>
      </trkpt>
      <trkpt lat="34.18622" lon="76.93795">
        <ele>3810.4</ele>
        <time>2015-08-28T10:28:12Z</time>
      </trkpt>
      <trkpt lat="34.1862" lon="76.93798">
        <ele>3810.4</ele>
        <time>2015-08-28T10:28:14Z</time>
      </trkpt>
      <trkpt lat="34.18618" lon="76.93804">
        <ele>3810.6</ele>
        <time>2015-08-28T10:28:20Z</time>
      </trkpt>
      <trkpt lat="34.18618" lon="76.93806">
        <ele>3810.8</ele>
        <time>2015-08-28T10:28:22Z</time>
      </trkpt>
      <trkpt lat="34.18619" lon="76.9381">
        <ele>3811</ele>
        <time>2015-08-28T10:28:29Z</time>
      </trkpt>
      <trkpt lat="34.18616" lon="76.93818">
        <ele>3811.2</ele>
        <time>2015-08-28T10:28:36Z</time>
      </trkpt>
      <trkpt lat="34.18615" lon="76.93827">
        <ele>3811.6</ele>
        <time>2015-08-28T10:28:48Z</time>
      </trkpt>
      <trkpt lat="34.18611" lon="76.93842">
        <ele>3811.6</ele>
        <time>2015-08-28T10:29:02Z</time>
      </trkpt>
      <trkpt lat="34.18605" lon="76.93849">
        <ele>3811.8</ele>
        <time>2015-08-28T10:29:11Z</time>
      </trkpt>
      <trkpt lat="34.18604" lon="76.93853">
        <ele>3811.8</ele>
        <time>2015-08-28T10:29:15Z</time>
      </trkpt>
      <trkpt lat="34.18603" lon="76.93855">
        <ele>3811.8</ele>
        <time>2015-08-28T10:29:17Z</time>
      </trkpt>
      <trkpt lat="34.18601" lon="76.93867">
        <ele>3812</ele>
        <time>2015-08-28T10:29:32Z</time>
      </trkpt>
      <trkpt lat="34.18597" lon="76.93885">
        <ele>3813</ele>
        <time>2015-08-28T10:29:52Z</time>
      </trkpt>
      <trkpt lat="34.18595" lon="76.93891">
        <ele>3812.8</ele>
        <time>2015-08-28T10:29:57Z</time>
      </trkpt>
      <trkpt lat="34.18595" lon="76.93894">
        <ele>3812.8</ele>
        <time>2015-08-28T10:30:00Z</time>
      </trkpt>
      <trkpt lat="34.18595" lon="76.93898">
        <ele>3813</ele>
        <time>2015-08-28T10:30:04Z</time>
      </trkpt>
      <trkpt lat="34.18596" lon="76.93899">
        <ele>3813</ele>
        <time>2015-08-28T10:30:05Z</time>
      </trkpt>
      <trkpt lat="34.18596" lon="76.93903">
        <ele>3813</ele>
        <time>2015-08-28T10:30:09Z</time>
      </trkpt>
      <trkpt lat="34.18596" lon="76.93908">
        <ele>3813.4</ele>
        <time>2015-08-28T10:30:13Z</time>
      </trkpt>
      <trkpt lat="34.18596" lon="76.9391">
        <ele>3813.4</ele>
        <time>2015-08-28T10:30:15Z</time>
      </trkpt>
      <trkpt lat="34.18594" lon="76.93921">
        <ele>3814</ele>
        <time>2015-08-28T10:30:28Z</time>
      </trkpt>
      <trkpt lat="34.18588" lon="76.93935">
        <ele>3815</ele>
        <time>2015-08-28T10:30:51Z</time>
      </trkpt>
      <trkpt lat="34.18589" lon="76.93949">
        <ele>3815.4</ele>
        <time>2015-08-28T10:31:07Z</time>
      </trkpt>
      <trkpt lat="34.1859" lon="76.93965">
        <ele>3815.4</ele>
        <time>2015-08-28T10:31:51Z</time>
      </trkpt>
      <trkpt lat="34.1859" lon="76.93966">
        <ele>3815.2</ele>
        <time>2015-08-28T10:31:53Z</time>
      </trkpt>
      <trkpt lat="34.1859" lon="76.93967">
        <ele>3815.2</ele>
        <time>2015-08-28T10:31:54Z</time>
      </trkpt>
      <trkpt lat="34.18587" lon="76.93971">
        <ele>3815.2</ele>
        <time>2015-08-28T10:31:58Z</time>
      </trkpt>
      <trkpt lat="34.18587" lon="76.93972">
        <ele>3815.2</ele>
        <time>2015-08-28T10:32:00Z</time>
      </trkpt>
      <trkpt lat="34.18584" lon="76.9399">
        <ele>3815</ele>
        <time>2015-08-28T10:32:15Z</time>
      </trkpt>
      <trkpt lat="34.18583" lon="76.93991">
        <ele>3815.2</ele>
        <time>2015-08-28T10:32:17Z</time>
      </trkpt>
      <trkpt lat="34.18579" lon="76.93998">
        <ele>3815.6</ele>
        <time>2015-08-28T10:32:24Z</time>
      </trkpt>
      <trkpt lat="34.18579" lon="76.94002">
        <ele>3815.6</ele>
        <time>2015-08-28T10:32:27Z</time>
      </trkpt>
      <trkpt lat="34.18578" lon="76.94007">
        <ele>3815.8</ele>
        <time>2015-08-28T10:32:32Z</time>
      </trkpt>
      <trkpt lat="34.18577" lon="76.94009">
        <ele>3816</ele>
        <time>2015-08-28T10:32:34Z</time>
      </trkpt>
      <trkpt lat="34.18568" lon="76.94024">
        <ele>3817.2</ele>
        <time>2015-08-28T10:32:54Z</time>
      </trkpt>
      <trkpt lat="34.18567" lon="76.94025">
        <ele>3817.2</ele>
        <time>2015-08-28T10:32:55Z</time>
      </trkpt>
      <trkpt lat="34.18567" lon="76.94026">
        <ele>3817.4</ele>
        <time>2015-08-28T10:32:57Z</time>
      </trkpt>
      <trkpt lat="34.18566" lon="76.94035">
        <ele>3818.2</ele>
        <time>2015-08-28T10:33:08Z</time>
      </trkpt>
      <trkpt lat="34.18553" lon="76.94051">
        <ele>3819</ele>
        <time>2015-08-28T10:33:30Z</time>
      </trkpt>
      <trkpt lat="34.1855" lon="76.94053">
        <ele>3819.2</ele>
        <time>2015-08-28T10:33:33Z</time>
      </trkpt>
      <trkpt lat="34.18538" lon="76.94069">
        <ele>3819.4</ele>
        <time>2015-08-28T10:33:56Z</time>
      </trkpt>
      <trkpt lat="34.18524" lon="76.94084">
        <ele>3819.8</ele>
        <time>2015-08-28T10:34:16Z</time>
      </trkpt>
      <trkpt lat="34.18519" lon="76.94089">
        <ele>3820.2</ele>
        <time>2015-08-28T10:34:27Z</time>
      </trkpt>
      <trkpt lat="34.18506" lon="76.94105">
        <ele>3820.6</ele>
        <time>2015-08-28T10:34:48Z</time>
      </trkpt>
      <trkpt lat="34.18504" lon="76.94107">
        <ele>3821</ele>
        <time>2015-08-28T10:34:51Z</time>
      </trkpt>
      <trkpt lat="34.18502" lon="76.94108">
        <ele>3821.4</ele>
        <time>2015-08-28T10:34:53Z</time>
      </trkpt>
      <trkpt lat="34.18489" lon="76.94123">
        <ele>3822</ele>
        <time>2015-08-28T10:35:13Z</time>
      </trkpt>
      <trkpt lat="34.18475" lon="76.94138">
        <ele>3821.6</ele>
        <time>2015-08-28T10:35:31Z</time>
      </trkpt>
      <trkpt lat="34.18474" lon="76.94138">
        <ele>3821.6</ele>
        <time>2015-08-28T10:35:32Z</time>
      </trkpt>
      <trkpt lat="34.18473" lon="76.94143">
        <ele>3820.8</ele>
        <time>2015-08-28T10:35:37Z</time>
      </trkpt>
      <trkpt lat="34.18472" lon="76.94145">
        <ele>3821</ele>
        <time>2015-08-28T10:35:40Z</time>
      </trkpt>
      <trkpt lat="34.18472" lon="76.9415">
        <ele>3821.2</ele>
        <time>2015-08-28T10:35:44Z</time>
      </trkpt>
      <trkpt lat="34.18472" lon="76.94153">
        <ele>3821.2</ele>
        <time>2015-08-28T10:35:46Z</time>
      </trkpt>
      <trkpt lat="34.18465" lon="76.94171">
        <ele>3821.4</ele>
        <time>2015-08-28T10:36:07Z</time>
      </trkpt>
      <trkpt lat="34.18464" lon="76.94174">
        <ele>3821.6</ele>
        <time>2015-08-28T10:36:10Z</time>
      </trkpt>
      <trkpt lat="34.18463" lon="76.94177">
        <ele>3821.8</ele>
        <time>2015-08-28T10:36:14Z</time>
      </trkpt>
      <trkpt lat="34.18462" lon="76.94179">
        <ele>3821.4</ele>
        <time>2015-08-28T10:36:17Z</time>
      </trkpt>
      <trkpt lat="34.1846" lon="76.94182">
        <ele>3821.2</ele>
        <time>2015-08-28T10:36:22Z</time>
      </trkpt>
      <trkpt lat="34.18455" lon="76.94189">
        <ele>3821.6</ele>
        <time>2015-08-28T10:36:29Z</time>
      </trkpt>
      <trkpt lat="34.18451" lon="76.94195">
        <ele>3821.8</ele>
        <time>2015-08-28T10:36:36Z</time>
      </trkpt>
      <trkpt lat="34.18446" lon="76.94198">
        <ele>3822.4</ele>
        <time>2015-08-28T10:36:42Z</time>
      </trkpt>
      <trkpt lat="34.18433" lon="76.94213">
        <ele>3823.6</ele>
        <time>2015-08-28T10:37:01Z</time>
      </trkpt>
      <trkpt lat="34.18432" lon="76.94213">
        <ele>3823.6</ele>
        <time>2015-08-28T10:37:02Z</time>
      </trkpt>
      <trkpt lat="34.1843" lon="76.94215">
        <ele>3824</ele>
        <time>2015-08-28T10:37:05Z</time>
      </trkpt>
      <trkpt lat="34.18426" lon="76.94229">
        <ele>3824.6</ele>
        <time>2015-08-28T10:37:21Z</time>
      </trkpt>
      <trkpt lat="34.18425" lon="76.94231">
        <ele>3824.6</ele>
        <time>2015-08-28T10:37:23Z</time>
      </trkpt>
      <trkpt lat="34.18424" lon="76.94233">
        <ele>3824.8</ele>
        <time>2015-08-28T10:37:25Z</time>
      </trkpt>
      <trkpt lat="34.18423" lon="76.94235">
        <ele>3824.6</ele>
        <time>2015-08-28T10:37:27Z</time>
      </trkpt>
      <trkpt lat="34.18422" lon="76.94238">
        <ele>3824.6</ele>
        <time>2015-08-28T10:37:29Z</time>
      </trkpt>
      <trkpt lat="34.18412" lon="76.94256">
        <ele>3824.4</ele>
        <time>2015-08-28T10:37:49Z</time>
      </trkpt>
      <trkpt lat="34.18406" lon="76.94266">
        <ele>3824.8</ele>
        <time>2015-08-28T10:38:00Z</time>
      </trkpt>
      <trkpt lat="34.18404" lon="76.94271">
        <ele>3825.6</ele>
        <time>2015-08-28T10:38:04Z</time>
      </trkpt>
      <trkpt lat="34.18395" lon="76.9429">
        <ele>3826</ele>
        <time>2015-08-28T10:38:23Z</time>
      </trkpt>
      <trkpt lat="34.18388" lon="76.94311">
        <ele>3826.2</ele>
        <time>2015-08-28T10:38:45Z</time>
      </trkpt>
      <trkpt lat="34.18384" lon="76.94318">
        <ele>3826.6</ele>
        <time>2015-08-28T10:38:54Z</time>
      </trkpt>
      <trkpt lat="34.18381" lon="76.94331">
        <ele>3827.6</ele>
        <time>2015-08-28T10:39:15Z</time>
      </trkpt>
      <trkpt lat="34.18378" lon="76.9434">
        <ele>3827.8</ele>
        <time>2015-08-28T10:39:25Z</time>
      </trkpt>
      <trkpt lat="34.18373" lon="76.94344">
        <ele>3827.4</ele>
        <time>2015-08-28T10:39:35Z</time>
      </trkpt>
      <trkpt lat="34.18373" lon="76.94345">
        <ele>3827.4</ele>
        <time>2015-08-28T10:39:37Z</time>
      </trkpt>
      <trkpt lat="34.18361" lon="76.94349">
        <ele>3828</ele>
        <time>2015-08-28T10:40:09Z</time>
      </trkpt>
      <trkpt lat="34.18359" lon="76.9435">
        <ele>3828.2</ele>
        <time>2015-08-28T10:40:11Z</time>
      </trkpt>
      <trkpt lat="34.18358" lon="76.94351">
        <ele>3828.4</ele>
        <time>2015-08-28T10:40:13Z</time>
      </trkpt>
      <trkpt lat="34.18357" lon="76.94352">
        <ele>3828.6</ele>
        <time>2015-08-28T10:40:15Z</time>
      </trkpt>
      <trkpt lat="34.18353" lon="76.94353">
        <ele>3828.8</ele>
        <time>2015-08-28T10:40:19Z</time>
      </trkpt>
      <trkpt lat="34.18347" lon="76.94361">
        <ele>3828.6</ele>
        <time>2015-08-28T10:40:27Z</time>
      </trkpt>
      <trkpt lat="34.18338" lon="76.94364">
        <ele>3828.8</ele>
        <time>2015-08-28T10:40:37Z</time>
      </trkpt>
      <trkpt lat="34.18335" lon="76.94374">
        <ele>3829.6</ele>
        <time>2015-08-28T10:41:16Z</time>
      </trkpt>
      <trkpt lat="34.18334" lon="76.94374">
        <ele>3829.6</ele>
        <time>2015-08-28T10:41:17Z</time>
      </trkpt>
      <trkpt lat="34.1832" lon="76.94382">
        <ele>3830.4</ele>
        <time>2015-08-28T10:41:55Z</time>
      </trkpt>
      <trkpt lat="34.18318" lon="76.94386">
        <ele>3830.8</ele>
        <time>2015-08-28T10:41:59Z</time>
      </trkpt>
      <trkpt lat="34.18315" lon="76.94389">
        <ele>3831.4</ele>
        <time>2015-08-28T10:42:04Z</time>
      </trkpt>
      <trkpt lat="34.18312" lon="76.94396">
        <ele>3831.8</ele>
        <time>2015-08-28T10:42:10Z</time>
      </trkpt>
      <trkpt lat="34.18306" lon="76.94405">
        <ele>3832.8</ele>
        <time>2015-08-28T10:42:26Z</time>
      </trkpt>
      <trkpt lat="34.18302" lon="76.94416">
        <ele>3833.8</ele>
        <time>2015-08-28T10:42:52Z</time>
      </trkpt>
      <trkpt lat="34.18299" lon="76.94432">
        <ele>3834.6</ele>
        <time>2015-08-28T10:43:24Z</time>
      </trkpt>
      <trkpt lat="34.18298" lon="76.94435">
        <ele>3834.8</ele>
        <time>2015-08-28T10:43:27Z</time>
      </trkpt>
      <trkpt lat="34.18297" lon="76.94435">
        <ele>3834.8</ele>
        <time>2015-08-28T10:43:28Z</time>
      </trkpt>
      <trkpt lat="34.18294" lon="76.94443">
        <ele>3836</ele>
        <time>2015-08-28T10:43:36Z</time>
      </trkpt>
      <trkpt lat="34.18287" lon="76.94454">
        <ele>3837</ele>
        <time>2015-08-28T10:43:50Z</time>
      </trkpt>
      <trkpt lat="34.18282" lon="76.94461">
        <ele>3838</ele>
        <time>2015-08-28T10:44:02Z</time>
      </trkpt>
      <trkpt lat="34.18274" lon="76.94478">
        <ele>3839</ele>
        <time>2015-08-28T10:44:27Z</time>
      </trkpt>
      <trkpt lat="34.18264" lon="76.94493">
        <ele>3839.8</ele>
        <time>2015-08-28T10:44:48Z</time>
      </trkpt>
      <trkpt lat="34.18253" lon="76.9451">
        <ele>3839.8</ele>
        <time>2015-08-28T10:45:10Z</time>
      </trkpt>
      <trkpt lat="34.18252" lon="76.94511">
        <ele>3839.8</ele>
        <time>2015-08-28T10:45:11Z</time>
      </trkpt>
      <trkpt lat="34.1824" lon="76.94521">
        <ele>3840.2</ele>
        <time>2015-08-28T10:45:28Z</time>
      </trkpt>
      <trkpt lat="34.18239" lon="76.94523">
        <ele>3840.4</ele>
        <time>2015-08-28T10:45:30Z</time>
      </trkpt>
      <trkpt lat="34.18237" lon="76.94526">
        <ele>3841.4</ele>
        <time>2015-08-28T10:45:37Z</time>
      </trkpt>
      <trkpt lat="34.18226" lon="76.94543">
        <ele>3842.4</ele>
        <time>2015-08-28T10:46:08Z</time>
      </trkpt>
      <trkpt lat="34.18226" lon="76.94544">
        <ele>3842.4</ele>
        <time>2015-08-28T10:46:09Z</time>
      </trkpt>
      <trkpt lat="34.18219" lon="76.94554">
        <ele>3843.4</ele>
        <time>2015-08-28T10:46:26Z</time>
      </trkpt>
      <trkpt lat="34.1821" lon="76.94572">
        <ele>3844.4</ele>
        <time>2015-08-28T10:46:54Z</time>
      </trkpt>
      <trkpt lat="34.18209" lon="76.94575">
        <ele>3844.4</ele>
        <time>2015-08-28T10:46:57Z</time>
      </trkpt>
      <trkpt lat="34.18208" lon="76.94577">
        <ele>3844.6</ele>
        <time>2015-08-28T10:46:59Z</time>
      </trkpt>
      <trkpt lat="34.18197" lon="76.94595">
        <ele>3845.4</ele>
        <time>2015-08-28T10:47:25Z</time>
      </trkpt>
      <trkpt lat="34.18196" lon="76.94598">
        <ele>3845.4</ele>
        <time>2015-08-28T10:47:28Z</time>
      </trkpt>
      <trkpt lat="34.1819" lon="76.9461">
        <ele>3846.4</ele>
        <time>2015-08-28T10:47:44Z</time>
      </trkpt>
      <trkpt lat="34.18181" lon="76.9463">
        <ele>3846.4</ele>
        <time>2015-08-28T10:48:05Z</time>
      </trkpt>
      <trkpt lat="34.18177" lon="76.94643">
        <ele>3846.8</ele>
        <time>2015-08-28T10:48:23Z</time>
      </trkpt>
      <trkpt lat="34.18166" lon="76.94661">
        <ele>3845.6</ele>
        <time>2015-08-28T10:48:46Z</time>
      </trkpt>
      <trkpt lat="34.18165" lon="76.94663">
        <ele>3845.4</ele>
        <time>2015-08-28T10:48:48Z</time>
      </trkpt>
      <trkpt lat="34.18165" lon="76.94668">
        <ele>3844.8</ele>
        <time>2015-08-28T10:48:54Z</time>
      </trkpt>
      <trkpt lat="34.18165" lon="76.9468">
        <ele>3844.2</ele>
        <time>2015-08-28T10:49:09Z</time>
      </trkpt>
      <trkpt lat="34.18163" lon="76.94686">
        <ele>3843.4</ele>
        <time>2015-08-28T10:49:17Z</time>
      </trkpt>
      <trkpt lat="34.18162" lon="76.94687">
        <ele>3843.2</ele>
        <time>2015-08-28T10:49:18Z</time>
      </trkpt>
      <trkpt lat="34.18162" lon="76.94687">
        <ele>3843.2</ele>
        <time>2015-08-28T10:49:19Z</time>
      </trkpt>
      <trkpt lat="34.18153" lon="76.94691">
        <ele>3843.6</ele>
        <time>2015-08-28T10:49:57Z</time>
      </trkpt>
      <trkpt lat="34.18147" lon="76.94694">
        <ele>3844.4</ele>
        <time>2015-08-28T10:50:37Z</time>
      </trkpt>
      <trkpt lat="34.18139" lon="76.94698">
        <ele>3845.4</ele>
        <time>2015-08-28T10:50:50Z</time>
      </trkpt>
      <trkpt lat="34.18135" lon="76.94702">
        <ele>3846.4</ele>
        <time>2015-08-28T10:51:01Z</time>
      </trkpt>
      <trkpt lat="34.1813" lon="76.94703">
        <ele>3847.6</ele>
        <time>2015-08-28T10:51:16Z</time>
      </trkpt>
      <trkpt lat="34.18124" lon="76.94705">
        <ele>3848.6</ele>
        <time>2015-08-28T10:51:24Z</time>
      </trkpt>
      <trkpt lat="34.1812" lon="76.94708">
        <ele>3849.6</ele>
        <time>2015-08-28T10:51:32Z</time>
      </trkpt>
      <trkpt lat="34.18112" lon="76.94719">
        <ele>3850.8</ele>
        <time>2015-08-28T10:51:52Z</time>
      </trkpt>
      <trkpt lat="34.18104" lon="76.94726">
        <ele>3851.8</ele>
        <time>2015-08-28T10:52:05Z</time>
      </trkpt>
      <trkpt lat="34.18103" lon="76.94735">
        <ele>3852.8</ele>
        <time>2015-08-28T10:52:21Z</time>
      </trkpt>
      <trkpt lat="34.18103" lon="76.9474">
        <ele>3853.8</ele>
        <time>2015-08-28T10:52:30Z</time>
      </trkpt>
      <trkpt lat="34.181" lon="76.94748">
        <ele>3855</ele>
        <time>2015-08-28T10:52:40Z</time>
      </trkpt>
      <trkpt lat="34.18097" lon="76.94761">
        <ele>3856</ele>
        <time>2015-08-28T10:52:55Z</time>
      </trkpt>
      <trkpt lat="34.18093" lon="76.94782">
        <ele>3856.8</ele>
        <time>2015-08-28T10:53:23Z</time>
      </trkpt>
      <trkpt lat="34.18092" lon="76.94803">
        <ele>3857</ele>
        <time>2015-08-28T10:53:48Z</time>
      </trkpt>
      <trkpt lat="34.1809" lon="76.94819">
        <ele>3857.4</ele>
        <time>2015-08-28T10:54:05Z</time>
      </trkpt>
      <trkpt lat="34.18087" lon="76.94836">
        <ele>3858</ele>
        <time>2015-08-28T10:54:22Z</time>
      </trkpt>
      <trkpt lat="34.18088" lon="76.94841">
        <ele>3859.2</ele>
        <time>2015-08-28T10:54:34Z</time>
      </trkpt>
      <trkpt lat="34.18086" lon="76.94855">
        <ele>3860.2</ele>
        <time>2015-08-28T10:54:48Z</time>
      </trkpt>
      <trkpt lat="34.18084" lon="76.94871">
        <ele>3861.2</ele>
        <time>2015-08-28T10:55:05Z</time>
      </trkpt>
      <trkpt lat="34.18079" lon="76.94892">
        <ele>3862.2</ele>
        <time>2015-08-28T10:55:28Z</time>
      </trkpt>
      <trkpt lat="34.18078" lon="76.94895">
        <ele>3862.2</ele>
        <time>2015-08-28T10:55:31Z</time>
      </trkpt>
      <trkpt lat="34.18078" lon="76.94903">
        <ele>3863.4</ele>
        <time>2015-08-28T10:55:44Z</time>
      </trkpt>
      <trkpt lat="34.18075" lon="76.94912">
        <ele>3864.4</ele>
        <time>2015-08-28T10:55:54Z</time>
      </trkpt>
      <trkpt lat="34.1807" lon="76.94922">
        <ele>3865.4</ele>
        <time>2015-08-28T10:56:07Z</time>
      </trkpt>
      <trkpt lat="34.18068" lon="76.9493">
        <ele>3866.4</ele>
        <time>2015-08-28T10:56:17Z</time>
      </trkpt>
      <trkpt lat="34.18063" lon="76.94938">
        <ele>3867.6</ele>
        <time>2015-08-28T10:56:27Z</time>
      </trkpt>
      <trkpt lat="34.18058" lon="76.94943">
        <ele>3867.4</ele>
        <time>2015-08-28T10:57:36Z</time>
      </trkpt>
      <trkpt lat="34.18047" lon="76.94949">
        <ele>3866.6</ele>
        <time>2015-08-28T10:58:24Z</time>
      </trkpt>
      <trkpt lat="34.18047" lon="76.94949">
        <ele>3866.6</ele>
        <time>2015-08-28T10:58:36Z</time>
      </trkpt>
      <trkpt lat="34.1804" lon="76.94948">
        <ele>3866</ele>
        <time>2015-08-28T10:58:44Z</time>
      </trkpt>
      <trkpt lat="34.18037" lon="76.94947">
        <ele>3865.8</ele>
        <time>2015-08-28T10:58:47Z</time>
      </trkpt>
      <trkpt lat="34.1803" lon="76.94947">
        <ele>3865.8</ele>
        <time>2015-08-28T10:58:54Z</time>
      </trkpt>
      <trkpt lat="34.18025" lon="76.94948">
        <ele>3865.6</ele>
        <time>2015-08-28T10:58:59Z</time>
      </trkpt>
      <trkpt lat="34.18025" lon="76.94948">
        <ele>3865.4</ele>
        <time>2015-08-28T10:59:00Z</time>
      </trkpt>
      <trkpt lat="34.18023" lon="76.94948">
        <ele>3865.2</ele>
        <time>2015-08-28T10:59:03Z</time>
      </trkpt>
      <trkpt lat="34.18016" lon="76.94955">
        <ele>3866.6</ele>
        <time>2015-08-28T10:59:21Z</time>
      </trkpt>
      <trkpt lat="34.18013" lon="76.94961">
        <ele>3867.6</ele>
        <time>2015-08-28T10:59:31Z</time>
      </trkpt>
      <trkpt lat="34.18011" lon="76.94974">
        <ele>3868.6</ele>
        <time>2015-08-28T10:59:46Z</time>
      </trkpt>
      <trkpt lat="34.18008" lon="76.94989">
        <ele>3869.6</ele>
        <time>2015-08-28T11:00:03Z</time>
      </trkpt>
      <trkpt lat="34.18002" lon="76.94999">
        <ele>3870.6</ele>
        <time>2015-08-28T11:00:20Z</time>
      </trkpt>
      <trkpt lat="34.17998" lon="76.95013">
        <ele>3871.8</ele>
        <time>2015-08-28T11:00:37Z</time>
      </trkpt>
      <trkpt lat="34.17997" lon="76.95028">
        <ele>3872.8</ele>
        <time>2015-08-28T11:00:52Z</time>
      </trkpt>
      <trkpt lat="34.17998" lon="76.95034">
        <ele>3873</ele>
        <time>2015-08-28T11:00:59Z</time>
      </trkpt>
      <trkpt lat="34.17998" lon="76.95037">
        <ele>3873.4</ele>
        <time>2015-08-28T11:01:03Z</time>
      </trkpt>
      <trkpt lat="34.17995" lon="76.95042">
        <ele>3873.6</ele>
        <time>2015-08-28T11:01:08Z</time>
      </trkpt>
      <trkpt lat="34.17995" lon="76.95044">
        <ele>3873.8</ele>
        <time>2015-08-28T11:01:10Z</time>
      </trkpt>
      <trkpt lat="34.17988" lon="76.95054">
        <ele>3874.8</ele>
        <time>2015-08-28T11:01:25Z</time>
      </trkpt>
      <trkpt lat="34.17982" lon="76.95062">
        <ele>3875.8</ele>
        <time>2015-08-28T11:01:39Z</time>
      </trkpt>
      <trkpt lat="34.1797" lon="76.95078">
        <ele>3876.4</ele>
        <time>2015-08-28T11:02:08Z</time>
      </trkpt>
      <trkpt lat="34.17964" lon="76.95085">
        <ele>3877</ele>
        <time>2015-08-28T11:02:22Z</time>
      </trkpt>
      <trkpt lat="34.17958" lon="76.95091">
        <ele>3878.2</ele>
        <time>2015-08-28T11:02:34Z</time>
      </trkpt>
      <trkpt lat="34.17954" lon="76.95098">
        <ele>3878.6</ele>
        <time>2015-08-28T11:02:41Z</time>
      </trkpt>
      <trkpt lat="34.17946" lon="76.95098">
        <ele>3879.2</ele>
        <time>2015-08-28T11:02:52Z</time>
      </trkpt>
      <trkpt lat="34.1794" lon="76.95102">
        <ele>3880.2</ele>
        <time>2015-08-28T11:03:00Z</time>
      </trkpt>
      <trkpt lat="34.17932" lon="76.9511">
        <ele>3881.4</ele>
        <time>2015-08-28T11:03:16Z</time>
      </trkpt>
      <trkpt lat="34.17925" lon="76.95119">
        <ele>3882.4</ele>
        <time>2015-08-28T11:03:31Z</time>
      </trkpt>
      <trkpt lat="34.17914" lon="76.95135">
        <ele>3883.2</ele>
        <time>2015-08-28T11:03:58Z</time>
      </trkpt>
      <trkpt lat="34.17912" lon="76.95137">
        <ele>3883.4</ele>
        <time>2015-08-28T11:04:03Z</time>
      </trkpt>
      <trkpt lat="34.17906" lon="76.95142">
        <ele>3884.4</ele>
        <time>2015-08-28T11:04:16Z</time>
      </trkpt>
      <trkpt lat="34.179" lon="76.95153">
        <ele>3885</ele>
        <time>2015-08-28T11:04:25Z</time>
      </trkpt>
      <trkpt lat="34.17899" lon="76.95154">
        <ele>3885</ele>
        <time>2015-08-28T11:04:27Z</time>
      </trkpt>
      <trkpt lat="34.17894" lon="76.95155">
        <ele>3885.6</ele>
        <time>2015-08-28T11:04:35Z</time>
      </trkpt>
      <trkpt lat="34.17889" lon="76.95156">
        <ele>3886.6</ele>
        <time>2015-08-28T11:04:43Z</time>
      </trkpt>
      <trkpt lat="34.17876" lon="76.95167">
        <ele>3887.6</ele>
        <time>2015-08-28T11:05:04Z</time>
      </trkpt>
      <trkpt lat="34.17869" lon="76.95181">
        <ele>3888.8</ele>
        <time>2015-08-28T11:05:23Z</time>
      </trkpt>
      <trkpt lat="34.17865" lon="76.95183">
        <ele>3889.8</ele>
        <time>2015-08-28T11:05:33Z</time>
      </trkpt>
      <trkpt lat="34.17849" lon="76.95189">
        <ele>3890.8</ele>
        <time>2015-08-28T11:05:53Z</time>
      </trkpt>
      <trkpt lat="34.17848" lon="76.9519">
        <ele>3890.8</ele>
        <time>2015-08-28T11:05:54Z</time>
      </trkpt>
      <trkpt lat="34.17831" lon="76.95193">
        <ele>3892</ele>
        <time>2015-08-28T11:06:14Z</time>
      </trkpt>
      <trkpt lat="34.17815" lon="76.95203">
        <ele>3891.6</ele>
        <time>2015-08-28T11:06:34Z</time>
      </trkpt>
      <trkpt lat="34.17802" lon="76.95219">
        <ele>3892.2</ele>
        <time>2015-08-28T11:07:01Z</time>
      </trkpt>
      <trkpt lat="34.1779" lon="76.95231">
        <ele>3892.2</ele>
        <time>2015-08-28T11:07:41Z</time>
      </trkpt>
      <trkpt lat="34.17786" lon="76.95241">
        <ele>3893</ele>
        <time>2015-08-28T11:07:50Z</time>
      </trkpt>
      <trkpt lat="34.17786" lon="76.95242">
        <ele>3893</ele>
        <time>2015-08-28T11:07:51Z</time>
      </trkpt>
      <trkpt lat="34.17777" lon="76.95251">
        <ele>3894</ele>
        <time>2015-08-28T11:08:05Z</time>
      </trkpt>
      <trkpt lat="34.17764" lon="76.95259">
        <ele>3895.2</ele>
        <time>2015-08-28T11:08:29Z</time>
      </trkpt>
      <trkpt lat="34.1776" lon="76.95264">
        <ele>3895.4</ele>
        <time>2015-08-28T11:08:34Z</time>
      </trkpt>
      <trkpt lat="34.17746" lon="76.95275">
        <ele>3895.8</ele>
        <time>2015-08-28T11:08:55Z</time>
      </trkpt>
      <trkpt lat="34.17745" lon="76.95277">
        <ele>3896</ele>
        <time>2015-08-28T11:08:57Z</time>
      </trkpt>
      <trkpt lat="34.17744" lon="76.95278">
        <ele>3896.2</ele>
        <time>2015-08-28T11:08:58Z</time>
      </trkpt>
      <trkpt lat="34.17741" lon="76.95282">
        <ele>3896.4</ele>
        <time>2015-08-28T11:09:03Z</time>
      </trkpt>
      <trkpt lat="34.17732" lon="76.95295">
        <ele>3897.2</ele>
        <time>2015-08-28T11:09:19Z</time>
      </trkpt>
      <trkpt lat="34.17723" lon="76.95307">
        <ele>3898.2</ele>
        <time>2015-08-28T11:09:32Z</time>
      </trkpt>
      <trkpt lat="34.17716" lon="76.95318">
        <ele>3898.8</ele>
        <time>2015-08-28T11:09:38Z</time>
      </trkpt>
      <trkpt lat="34.17716" lon="76.95316">
        <ele>3899</ele>
        <time>2015-08-28T11:09:42Z</time>
      </trkpt>
      <trkpt lat="34.17718" lon="76.95315">
        <ele>3899.4</ele>
        <time>2015-08-28T11:09:46Z</time>
      </trkpt>
      <trkpt lat="34.17718" lon="76.95323">
        <ele>3900.4</ele>
        <time>2015-08-28T11:09:58Z</time>
      </trkpt>
      <trkpt lat="34.17719" lon="76.95328">
        <ele>3901.4</ele>
        <time>2015-08-28T11:10:07Z</time>
      </trkpt>
      <trkpt lat="34.17721" lon="76.95331">
        <ele>3902.4</ele>
        <time>2015-08-28T11:10:18Z</time>
      </trkpt>
      <trkpt lat="34.17724" lon="76.95332">
        <ele>3903.4</ele>
        <time>2015-08-28T11:10:29Z</time>
      </trkpt>
      <trkpt lat="34.17725" lon="76.95339">
        <ele>3904.6</ele>
        <time>2015-08-28T11:10:38Z</time>
      </trkpt>
      <trkpt lat="34.17721" lon="76.95349">
        <ele>3905.6</ele>
        <time>2015-08-28T11:10:53Z</time>
      </trkpt>
      <trkpt lat="34.17718" lon="76.95361">
        <ele>3906.6</ele>
        <time>2015-08-28T11:11:07Z</time>
      </trkpt>
      <trkpt lat="34.17711" lon="76.9537">
        <ele>3907.6</ele>
        <time>2015-08-28T11:11:23Z</time>
      </trkpt>
      <trkpt lat="34.17711" lon="76.95367">
        <ele>3907.8</ele>
        <time>2015-08-28T11:11:25Z</time>
      </trkpt>
      <trkpt lat="34.17712" lon="76.9537">
        <ele>3908.8</ele>
        <time>2015-08-28T11:11:32Z</time>
      </trkpt>
      <trkpt lat="34.1771" lon="76.95385">
        <ele>3909</ele>
        <time>2015-08-28T11:12:07Z</time>
      </trkpt>
      <trkpt lat="34.17711" lon="76.95387">
        <ele>3908.8</ele>
        <time>2015-08-28T11:12:09Z</time>
      </trkpt>
      <trkpt lat="34.17711" lon="76.9539">
        <ele>3908.8</ele>
        <time>2015-08-28T11:12:11Z</time>
      </trkpt>
      <trkpt lat="34.1772" lon="76.95406">
        <ele>3908</ele>
        <time>2015-08-28T11:12:40Z</time>
      </trkpt>
      <trkpt lat="34.17715" lon="76.95417">
        <ele>3908.4</ele>
        <time>2015-08-28T11:12:51Z</time>
      </trkpt>
      <trkpt lat="34.1771" lon="76.95427">
        <ele>3908.4</ele>
        <time>2015-08-28T11:13:12Z</time>
      </trkpt>
      <trkpt lat="34.17717" lon="76.95447">
        <ele>3909.8</ele>
        <time>2015-08-28T11:13:31Z</time>
      </trkpt>
      <trkpt lat="34.17717" lon="76.95448">
        <ele>3909.8</ele>
        <time>2015-08-28T11:13:32Z</time>
      </trkpt>
      <trkpt lat="34.17714" lon="76.95459">
        <ele>3911</ele>
        <time>2015-08-28T11:13:44Z</time>
      </trkpt>
      <trkpt lat="34.17713" lon="76.95467">
        <ele>3912</ele>
        <time>2015-08-28T11:13:54Z</time>
      </trkpt>
      <trkpt lat="34.17709" lon="76.95481">
        <ele>3913.2</ele>
        <time>2015-08-28T11:14:10Z</time>
      </trkpt>
      <trkpt lat="34.17709" lon="76.95495">
        <ele>3914.2</ele>
        <time>2015-08-28T11:14:26Z</time>
      </trkpt>
      <trkpt lat="34.1771" lon="76.95501">
        <ele>3914.6</ele>
        <time>2015-08-28T11:14:31Z</time>
      </trkpt>
      <trkpt lat="34.17711" lon="76.95503">
        <ele>3914.6</ele>
        <time>2015-08-28T11:14:33Z</time>
      </trkpt>
      <trkpt lat="34.17711" lon="76.95506">
        <ele>3915</ele>
        <time>2015-08-28T11:14:35Z</time>
      </trkpt>
      <trkpt lat="34.17712" lon="76.95507">
        <ele>3915.2</ele>
        <time>2015-08-28T11:14:37Z</time>
      </trkpt>
      <trkpt lat="34.17713" lon="76.95508">
        <ele>3915.2</ele>
        <time>2015-08-28T11:14:38Z</time>
      </trkpt>
      <trkpt lat="34.17719" lon="76.95517">
        <ele>3916.4</ele>
        <time>2015-08-28T11:14:58Z</time>
      </trkpt>
      <trkpt lat="34.17723" lon="76.95516">
        <ele>3917.4</ele>
        <time>2015-08-28T11:15:06Z</time>
      </trkpt>
      <trkpt lat="34.17728" lon="76.95515">
        <ele>3918.6</ele>
        <time>2015-08-28T11:15:15Z</time>
      </trkpt>
      <trkpt lat="34.17733" lon="76.95513">
        <ele>3919.6</ele>
        <time>2015-08-28T11:15:24Z</time>
      </trkpt>
      <trkpt lat="34.17734" lon="76.95513">
        <ele>3920.4</ele>
        <time>2015-08-28T11:15:28Z</time>
      </trkpt>
      <trkpt lat="34.17734" lon="76.95512">
        <ele>3916.2</ele>
        <time>2015-08-28T11:15:33Z</time>
      </trkpt>
    </trkseg>
  </trk>
</gpx>